sensor_id;sensor_type;location;lat;lon;timestamp;P1;durP1;ratioP1;P2;durP2;ratioP2
45366;SDS011;31100;55.848;37.636;2023-05-08T00:01:08;20.65;;;9.93;;
45366;SDS011;31100;55.848;37.636;2023-05-08T00:03:34;21.20;;;9.35;;
45366;SDS011;31100;55.848;37.636;2023-05-08T00:06:02;21.48;;;10.15;;
45366;SDS011;31100;55.848;37.636;2023-05-08T00:08:28;15.85;;;9.23;;
45366;SDS011;31100;55.848;37.636;2023-05-08T00:10:54;27.02;;;10.38;;
45366;SDS011;31100;55.848;37.636;2023-05-08T00:13:19;21.80;;;10.02;;
45366;SDS011;31100;55.848;37.636;2023-05-08T00:15:45;18.65;;;9.80;;
45366;SDS011;31100;55.848;37.636;2023-05-08T00:18:10;19.83;;;11.02;;
45366;SDS011;31100;55.848;37.636;2023-05-08T00:20:36;23.73;;;12.13;;
45366;SDS011;31100;55.848;37.636;2023-05-08T00:23:02;25.83;;;12.05;;
45366;SDS011;31100;55.848;37.636;2023-05-08T00:25:28;22.25;;;11.25;;
45366;SDS011;31100;55.848;37.636;2023-05-08T00:27:55;22.92;;;12.20;;
45366;SDS011;31100;55.848;37.636;2023-05-08T00:30:23;21.05;;;12.20;;
45366;SDS011;31100;55.848;37.636;2023-05-08T00:32:49;19.40;;;11.48;;
45366;SDS011;31100;55.848;37.636;2023-05-08T00:35:14;25.58;;;12.70;;
45366;SDS011;31100;55.848;37.636;2023-05-08T00:37:40;20.38;;;11.65;;
45366;SDS011;31100;55.848;37.636;2023-05-08T00:40:08;21.65;;;11.45;;
45366;SDS011;31100;55.848;37.636;2023-05-08T00:42:34;20.60;;;12.60;;
45366;SDS011;31100;55.848;37.636;2023-05-08T00:44:59;21.23;;;13.85;;
45366;SDS011;31100;55.848;37.636;2023-05-08T00:47:25;26.23;;;15.18;;
45366;SDS011;31100;55.848;37.636;2023-05-08T00:49:50;29.52;;;19.23;;
45366;SDS011;31100;55.848;37.636;2023-05-08T00:52:17;23.77;;;14.65;;
45366;SDS011;31100;55.848;37.636;2023-05-08T00:54:43;24.50;;;12.80;;
45366;SDS011;31100;55.848;37.636;2023-05-08T00:57:11;26.00;;;17.48;;
45366;SDS011;31100;55.848;37.636;2023-05-08T00:59:38;30.02;;;19.35;;
45366;SDS011;31100;55.848;37.636;2023-05-08T01:02:06;29.15;;;21.13;;
45366;SDS011;31100;55.848;37.636;2023-05-08T01:04:32;31.48;;;22.10;;
45366;SDS011;31100;55.848;37.636;2023-05-08T01:06:58;30.63;;;18.92;;
45366;SDS011;31100;55.848;37.636;2023-05-08T01:09:25;32.33;;;20.90;;
45366;SDS011;31100;55.848;37.636;2023-05-08T01:19:41;25.27;;;17.67;;
45366;SDS011;31100;55.848;37.636;2023-05-08T01:22:20;28.92;;;18.88;;
45366;SDS011;31100;55.848;37.636;2023-05-08T01:28:17;27.88;;;17.13;;
45366;SDS011;31100;55.848;37.636;2023-05-08T01:31:04;20.90;;;14.70;;
45366;SDS011;31100;55.848;37.636;2023-05-08T01:36:27;27.52;;;12.80;;
45366;SDS011;31100;55.848;37.636;2023-05-08T01:44:27;18.00;;;10.27;;
45366;SDS011;31100;55.848;37.636;2023-05-08T01:46:54;20.77;;;10.02;;
45366;SDS011;31100;55.848;37.636;2023-05-08T01:49:24;19.48;;;10.02;;
45366;SDS011;31100;55.848;37.636;2023-05-08T01:51:59;16.02;;;9.20;;
45366;SDS011;31100;55.848;37.636;2023-05-08T01:54:29;16.65;;;8.90;;
45366;SDS011;31100;55.848;37.636;2023-05-08T01:57:00;13.55;;;8.27;;
45366;SDS011;31100;55.848;37.636;2023-05-08T01:59:26;14.32;;;8.45;;
45366;SDS011;31100;55.848;37.636;2023-05-08T02:01:54;13.85;;;8.20;;
45366;SDS011;31100;55.848;37.636;2023-05-08T02:04:23;15.23;;;8.55;;
45366;SDS011;31100;55.848;37.636;2023-05-08T02:06:50;12.65;;;8.93;;
45366;SDS011;31100;55.848;37.636;2023-05-08T02:09:16;15.23;;;8.65;;
45366;SDS011;31100;55.848;37.636;2023-05-08T02:11:42;14.27;;;9.05;;
45366;SDS011;31100;55.848;37.636;2023-05-08T02:14:08;14.82;;;8.52;;
45366;SDS011;31100;55.848;37.636;2023-05-08T02:16:36;13.43;;;8.45;;
45366;SDS011;31100;55.848;37.636;2023-05-08T02:19:02;14.68;;;8.30;;
45366;SDS011;31100;55.848;37.636;2023-05-08T02:21:28;16.42;;;8.13;;
45366;SDS011;31100;55.848;37.636;2023-05-08T02:23:55;13.40;;;8.85;;
45366;SDS011;31100;55.848;37.636;2023-05-08T02:26:22;12.27;;;7.93;;
45366;SDS011;31100;55.848;37.636;2023-05-08T02:28:48;12.32;;;8.20;;
45366;SDS011;31100;55.848;37.636;2023-05-08T02:31:15;12.00;;;7.40;;
45366;SDS011;31100;55.848;37.636;2023-05-08T02:33:41;12.73;;;7.53;;
45366;SDS011;31100;55.848;37.636;2023-05-08T02:36:08;11.98;;;8.05;;
45366;SDS011;31100;55.848;37.636;2023-05-08T02:38:36;10.57;;;7.82;;
45366;SDS011;31100;55.848;37.636;2023-05-08T02:41:01;15.63;;;8.40;;
45366;SDS011;31100;55.848;37.636;2023-05-08T02:43:30;13.52;;;8.82;;
45366;SDS011;31100;55.848;37.636;2023-05-08T02:51:21;12.40;;;7.13;;
45366;SDS011;31100;55.848;37.636;2023-05-08T02:53:54;10.25;;;6.65;;
45366;SDS011;31100;55.848;37.636;2023-05-08T02:56:26;13.38;;;7.35;;
45366;SDS011;31100;55.848;37.636;2023-05-08T02:59:06;9.35;;;6.30;;
45366;SDS011;31100;55.848;37.636;2023-05-08T03:01:59;11.18;;;7.50;;
45366;SDS011;31100;55.848;37.636;2023-05-08T03:04:31;9.90;;;6.53;;
45366;SDS011;31100;55.848;37.636;2023-05-08T03:07:00;8.75;;;7.05;;
45366;SDS011;31100;55.848;37.636;2023-05-08T03:09:29;11.77;;;6.70;;
45366;SDS011;31100;55.848;37.636;2023-05-08T03:12:02;11.77;;;6.82;;
45366;SDS011;31100;55.848;37.636;2023-05-08T03:14:31;12.48;;;7.18;;
45366;SDS011;31100;55.848;37.636;2023-05-08T03:16:56;10.38;;;6.90;;
45366;SDS011;31100;55.848;37.636;2023-05-08T03:19:25;9.90;;;6.20;;
45366;SDS011;31100;55.848;37.636;2023-05-08T03:21:52;8.70;;;6.20;;
45366;SDS011;31100;55.848;37.636;2023-05-08T03:24:19;9.93;;;5.80;;
45366;SDS011;31100;55.848;37.636;2023-05-08T03:26:47;12.02;;;6.43;;
45366;SDS011;31100;55.848;37.636;2023-05-08T03:29:13;10.93;;;6.55;;
45366;SDS011;31100;55.848;37.636;2023-05-08T03:31:39;11.75;;;6.70;;
45366;SDS011;31100;55.848;37.636;2023-05-08T03:34:08;13.02;;;6.15;;
45366;SDS011;31100;55.848;37.636;2023-05-08T03:36:36;9.38;;;6.82;;
45366;SDS011;31100;55.848;37.636;2023-05-08T03:39:01;10.98;;;6.25;;
45366;SDS011;31100;55.848;37.636;2023-05-08T03:41:27;10.85;;;5.80;;
45366;SDS011;31100;55.848;37.636;2023-05-08T03:43:53;11.30;;;6.70;;
45366;SDS011;31100;55.848;37.636;2023-05-08T03:46:19;8.00;;;5.88;;
45366;SDS011;31100;55.848;37.636;2023-05-08T03:48:45;8.88;;;6.20;;
45366;SDS011;31100;55.848;37.636;2023-05-08T03:51:11;9.43;;;6.05;;
45366;SDS011;31100;55.848;37.636;2023-05-08T03:53:37;10.07;;;5.55;;
45366;SDS011;31100;55.848;37.636;2023-05-08T03:56:02;8.65;;;5.68;;
45366;SDS011;31100;55.848;37.636;2023-05-08T03:58:33;10.07;;;5.50;;
45366;SDS011;31100;55.848;37.636;2023-05-08T04:03:53;8.80;;;5.47;;
45366;SDS011;31100;55.848;37.636;2023-05-08T04:09:42;8.43;;;5.00;;
45366;SDS011;31100;55.848;37.636;2023-05-08T04:12:19;8.40;;;5.03;;
45366;SDS011;31100;55.848;37.636;2023-05-08T04:14:48;7.38;;;4.97;;
45366;SDS011;31100;55.848;37.636;2023-05-08T04:17:20;9.30;;;5.35;;
45366;SDS011;31100;55.848;37.636;2023-05-08T04:19:50;8.35;;;5.13;;
45366;SDS011;31100;55.848;37.636;2023-05-08T04:22:20;7.95;;;4.78;;
45366;SDS011;31100;55.848;37.636;2023-05-08T04:24:47;7.95;;;5.35;;
45366;SDS011;31100;55.848;37.636;2023-05-08T04:27:14;6.68;;;4.68;;
45366;SDS011;31100;55.848;37.636;2023-05-08T04:29:40;8.52;;;4.50;;
45366;SDS011;31100;55.848;37.636;2023-05-08T04:32:05;8.80;;;4.53;;
45366;SDS011;31100;55.848;37.636;2023-05-08T04:34:31;7.18;;;4.45;;
45366;SDS011;31100;55.848;37.636;2023-05-08T04:36:57;8.57;;;4.15;;
45366;SDS011;31100;55.848;37.636;2023-05-08T04:39:23;8.38;;;4.32;;
45366;SDS011;31100;55.848;37.636;2023-05-08T04:41:48;9.70;;;4.18;;
45366;SDS011;31100;55.848;37.636;2023-05-08T04:44:15;6.95;;;4.13;;
45366;SDS011;31100;55.848;37.636;2023-05-08T04:46:41;4.53;;;3.00;;
45366;SDS011;31100;55.848;37.636;2023-05-08T04:49:06;6.32;;;3.50;;
45366;SDS011;31100;55.848;37.636;2023-05-08T04:51:32;6.05;;;3.50;;
45366;SDS011;31100;55.848;37.636;2023-05-08T04:53:57;5.28;;;3.65;;
45366;SDS011;31100;55.848;37.636;2023-05-08T04:56:23;7.47;;;3.85;;
45366;SDS011;31100;55.848;37.636;2023-05-08T04:58:48;8.75;;;3.67;;
45366;SDS011;31100;55.848;37.636;2023-05-08T05:01:15;5.57;;;3.33;;
45366;SDS011;31100;55.848;37.636;2023-05-08T05:03:40;5.65;;;2.90;;
45366;SDS011;31100;55.848;37.636;2023-05-08T05:06:06;6.63;;;2.95;;
45366;SDS011;31100;55.848;37.636;2023-05-08T05:08:31;5.68;;;2.90;;
45366;SDS011;31100;55.848;37.636;2023-05-08T05:10:57;3.95;;;2.83;;
45366;SDS011;31100;55.848;37.636;2023-05-08T05:13:22;4.63;;;2.65;;
45366;SDS011;31100;55.848;37.636;2023-05-08T05:15:48;7.43;;;2.60;;
45366;SDS011;31100;55.848;37.636;2023-05-08T05:18:15;8.45;;;2.40;;
45366;SDS011;31100;55.848;37.636;2023-05-08T05:20:41;3.92;;;1.70;;
45366;SDS011;31100;55.848;37.636;2023-05-08T05:23:06;4.18;;;1.98;;
45366;SDS011;31100;55.848;37.636;2023-05-08T05:25:38;5.13;;;2.28;;
45366;SDS011;31100;55.848;37.636;2023-05-08T05:28:03;4.40;;;2.00;;
45366;SDS011;31100;55.848;37.636;2023-05-08T05:30:32;5.03;;;1.75;;
45366;SDS011;31100;55.848;37.636;2023-05-08T05:32:58;4.15;;;1.83;;
45366;SDS011;31100;55.848;37.636;2023-05-08T05:35:23;5.47;;;1.52;;
45366;SDS011;31100;55.848;37.636;2023-05-08T05:37:49;3.58;;;1.80;;
45366;SDS011;31100;55.848;37.636;2023-05-08T05:40:14;3.72;;;1.60;;
45366;SDS011;31100;55.848;37.636;2023-05-08T05:42:40;5.35;;;1.70;;
45366;SDS011;31100;55.848;37.636;2023-05-08T05:45:06;3.05;;;1.42;;
45366;SDS011;31100;55.848;37.636;2023-05-08T05:47:32;2.97;;;1.40;;
45366;SDS011;31100;55.848;37.636;2023-05-08T05:49:57;2.50;;;1.40;;
45366;SDS011;31100;55.848;37.636;2023-05-08T05:52:22;3.20;;;1.73;;
45366;SDS011;31100;55.848;37.636;2023-05-08T05:54:48;3.15;;;1.30;;
45366;SDS011;31100;55.848;37.636;2023-05-08T05:57:13;2.30;;;0.90;;
45366;SDS011;31100;55.848;37.636;2023-05-08T05:59:39;2.85;;;1.00;;
45366;SDS011;31100;55.848;37.636;2023-05-08T06:02:05;4.72;;;1.00;;
45366;SDS011;31100;55.848;37.636;2023-05-08T06:04:34;3.20;;;0.70;;
45366;SDS011;31100;55.848;37.636;2023-05-08T06:06:59;2.25;;;0.73;;
45366;SDS011;31100;55.848;37.636;2023-05-08T06:09:25;2.92;;;0.70;;
45366;SDS011;31100;55.848;37.636;2023-05-08T06:11:50;1.75;;;0.70;;
45366;SDS011;31100;55.848;37.636;2023-05-08T06:14:16;1.75;;;0.80;;
45366;SDS011;31100;55.848;37.636;2023-05-08T06:16:41;2.10;;;0.80;;
45366;SDS011;31100;55.848;37.636;2023-05-08T06:19:08;1.98;;;0.90;;
45366;SDS011;31100;55.848;37.636;2023-05-08T06:21:34;3.72;;;0.80;;
45366;SDS011;31100;55.848;37.636;2023-05-08T06:24:00;2.53;;;0.73;;
45366;SDS011;31100;55.848;37.636;2023-05-08T06:26:26;2.78;;;0.88;;
45366;SDS011;31100;55.848;37.636;2023-05-08T06:28:51;1.85;;;0.73;;
45366;SDS011;31100;55.848;37.636;2023-05-08T06:31:17;2.22;;;0.80;;
45366;SDS011;31100;55.848;37.636;2023-05-08T06:33:43;3.15;;;0.70;;
45366;SDS011;31100;55.848;37.636;2023-05-08T06:36:08;2.30;;;0.77;;
45366;SDS011;31100;55.848;37.636;2023-05-08T06:38:34;4.03;;;0.80;;
45366;SDS011;31100;55.848;37.636;2023-05-08T06:40:59;2.30;;;1.23;;
45366;SDS011;31100;55.848;37.636;2023-05-08T06:43:25;2.10;;;0.73;;
45366;SDS011;31100;55.848;37.636;2023-05-08T06:45:50;3.55;;;0.88;;
45366;SDS011;31100;55.848;37.636;2023-05-08T06:48:17;2.17;;;1.00;;
45366;SDS011;31100;55.848;37.636;2023-05-08T06:50:42;2.88;;;0.90;;
45366;SDS011;31100;55.848;37.636;2023-05-08T06:53:08;2.47;;;0.80;;
45366;SDS011;31100;55.848;37.636;2023-05-08T06:55:34;2.05;;;0.98;;
45366;SDS011;31100;55.848;37.636;2023-05-08T06:57:59;1.73;;;0.80;;
45366;SDS011;31100;55.848;37.636;2023-05-08T07:00:25;3.33;;;0.77;;
45366;SDS011;31100;55.848;37.636;2023-05-08T07:02:50;2.15;;;0.65;;
45366;SDS011;31100;55.848;37.636;2023-05-08T07:05:16;2.45;;;0.82;;
45366;SDS011;31100;55.848;37.636;2023-05-08T07:07:48;2.28;;;1.00;;
45366;SDS011;31100;55.848;37.636;2023-05-08T07:10:34;2.78;;;0.80;;
45366;SDS011;31100;55.848;37.636;2023-05-08T07:13:04;3.72;;;1.33;;
45366;SDS011;31100;55.848;37.636;2023-05-08T07:15:30;2.10;;;0.80;;
45366;SDS011;31100;55.848;37.636;2023-05-08T07:18:24;2.50;;;0.70;;
45366;SDS011;31100;55.848;37.636;2023-05-08T07:20:50;1.58;;;0.70;;
45366;SDS011;31100;55.848;37.636;2023-05-08T07:23:16;4.22;;;0.70;;
45366;SDS011;31100;55.848;37.636;2023-05-08T07:25:41;2.08;;;0.75;;
45366;SDS011;31100;55.848;37.636;2023-05-08T07:28:10;3.03;;;0.70;;
45366;SDS011;31100;55.848;37.636;2023-05-08T07:30:35;2.45;;;0.70;;
45366;SDS011;31100;55.848;37.636;2023-05-08T07:33:01;2.08;;;0.73;;
45366;SDS011;31100;55.848;37.636;2023-05-08T07:35:26;2.35;;;0.70;;
45366;SDS011;31100;55.848;37.636;2023-05-08T07:37:53;1.90;;;0.85;;
45366;SDS011;31100;55.848;37.636;2023-05-08T07:40:19;1.90;;;0.80;;
45366;SDS011;31100;55.848;37.636;2023-05-08T07:42:44;1.75;;;0.60;;
45366;SDS011;31100;55.848;37.636;2023-05-08T07:45:10;1.67;;;0.60;;
45366;SDS011;31100;55.848;37.636;2023-05-08T07:47:37;1.52;;;0.60;;
45366;SDS011;31100;55.848;37.636;2023-05-08T07:50:03;2.35;;;0.77;;
45366;SDS011;31100;55.848;37.636;2023-05-08T07:52:28;2.35;;;0.60;;
45366;SDS011;31100;55.848;37.636;2023-05-08T07:54:54;2.15;;;0.85;;
45366;SDS011;31100;55.848;37.636;2023-05-08T07:57:19;2.30;;;0.80;;
45366;SDS011;31100;55.848;37.636;2023-05-08T07:59:45;1.40;;;0.73;;
45366;SDS011;31100;55.848;37.636;2023-05-08T08:02:10;1.83;;;0.73;;
45366;SDS011;31100;55.848;37.636;2023-05-08T08:04:36;4.00;;;0.90;;
45366;SDS011;31100;55.848;37.636;2023-05-08T08:07:01;2.95;;;1.27;;
45366;SDS011;31100;55.848;37.636;2023-05-08T08:09:27;2.15;;;0.77;;
45366;SDS011;31100;55.848;37.636;2023-05-08T08:11:52;1.95;;;0.90;;
45366;SDS011;31100;55.848;37.636;2023-05-08T08:14:18;2.30;;;0.93;;
45366;SDS011;31100;55.848;37.636;2023-05-08T08:16:43;1.70;;;0.80;;
45366;SDS011;31100;55.848;37.636;2023-05-08T08:19:09;1.35;;;0.70;;
45366;SDS011;31100;55.848;37.636;2023-05-08T08:21:35;1.92;;;1.25;;
45366;SDS011;31100;55.848;37.636;2023-05-08T08:24:00;1.77;;;0.70;;
45366;SDS011;31100;55.848;37.636;2023-05-08T08:26:26;2.80;;;1.00;;
45366;SDS011;31100;55.848;37.636;2023-05-08T08:28:51;5.70;;;1.23;;
45366;SDS011;31100;55.848;37.636;2023-05-08T08:31:17;3.10;;;0.90;;
45366;SDS011;31100;55.848;37.636;2023-05-08T08:33:44;2.33;;;0.93;;
45366;SDS011;31100;55.848;37.636;2023-05-08T08:36:13;2.08;;;0.90;;
45366;SDS011;31100;55.848;37.636;2023-05-08T08:38:38;2.42;;;0.77;;
45366;SDS011;31100;55.848;37.636;2023-05-08T08:41:04;3.70;;;0.93;;
45366;SDS011;31100;55.848;37.636;2023-05-08T08:43:29;3.30;;;1.00;;
45366;SDS011;31100;55.848;37.636;2023-05-08T08:45:55;1.80;;;0.75;;
45366;SDS011;31100;55.848;37.636;2023-05-08T08:48:23;2.10;;;1.08;;
45366;SDS011;31100;55.848;37.636;2023-05-08T08:50:52;4.05;;;1.10;;
45366;SDS011;31100;55.848;37.636;2023-05-08T08:55:50;3.00;;;1.10;;
45366;SDS011;31100;55.848;37.636;2023-05-08T08:58:24;3.80;;;1.10;;
45366;SDS011;31100;55.848;37.636;2023-05-08T09:00:59;3.25;;;1.02;;
45366;SDS011;31100;55.848;37.636;2023-05-08T09:03:25;3.40;;;1.10;;
45366;SDS011;31100;55.848;37.636;2023-05-08T09:05:51;1.70;;;0.90;;
45366;SDS011;31100;55.848;37.636;2023-05-08T09:08:17;3.55;;;1.20;;
45366;SDS011;31100;55.848;37.636;2023-05-08T09:10:43;2.60;;;0.90;;
45366;SDS011;31100;55.848;37.636;2023-05-08T09:13:09;3.67;;;1.00;;
45366;SDS011;31100;55.848;37.636;2023-05-08T09:15:35;2.22;;;1.00;;
45366;SDS011;31100;55.848;37.636;2023-05-08T09:18:01;3.10;;;1.10;;
45366;SDS011;31100;55.848;37.636;2023-05-08T09:20:27;7.78;;;1.23;;
45366;SDS011;31100;55.848;37.636;2023-05-08T09:22:53;2.60;;;1.00;;
45366;SDS011;31100;55.848;37.636;2023-05-08T09:25:18;4.72;;;1.20;;
45366;SDS011;31100;55.848;37.636;2023-05-08T09:27:44;3.78;;;1.20;;
45366;SDS011;31100;55.848;37.636;2023-05-08T09:30:10;3.45;;;1.20;;
45366;SDS011;31100;55.848;37.636;2023-05-08T09:32:37;4.82;;;1.33;;
45366;SDS011;31100;55.848;37.636;2023-05-08T09:35:05;2.60;;;1.13;;
45366;SDS011;31100;55.848;37.636;2023-05-08T09:37:31;2.45;;;1.10;;
45366;SDS011;31100;55.848;37.636;2023-05-08T09:42:45;4.47;;;1.05;;
45366;SDS011;31100;55.848;37.636;2023-05-08T09:45:25;2.97;;;1.10;;
45366;SDS011;31100;55.848;37.636;2023-05-08T09:50:20;2.42;;;1.17;;
45366;SDS011;31100;55.848;37.636;2023-05-08T09:52:46;3.25;;;1.08;;
45366;SDS011;31100;55.848;37.636;2023-05-08T09:55:13;2.50;;;1.20;;
45366;SDS011;31100;55.848;37.636;2023-05-08T09:57:39;2.78;;;0.90;;
45366;SDS011;31100;55.848;37.636;2023-05-08T10:00:17;2.67;;;1.20;;
45366;SDS011;31100;55.848;37.636;2023-05-08T10:02:53;2.80;;;1.00;;
45366;SDS011;31100;55.848;37.636;2023-05-08T10:05:29;3.08;;;1.50;;
45366;SDS011;31100;55.848;37.636;2023-05-08T10:08:18;2.03;;;0.90;;
45366;SDS011;31100;55.848;37.636;2023-05-08T10:10:47;2.97;;;1.00;;
45366;SDS011;31100;55.848;37.636;2023-05-08T10:13:13;3.53;;;1.10;;
45366;SDS011;31100;55.848;37.636;2023-05-08T10:15:42;2.45;;;1.00;;
45366;SDS011;31100;55.848;37.636;2023-05-08T10:18:09;2.10;;;0.90;;
45366;SDS011;31100;55.848;37.636;2023-05-08T10:20:39;4.03;;;1.10;;
45366;SDS011;31100;55.848;37.636;2023-05-08T10:23:06;3.28;;;1.52;;
45366;SDS011;31100;55.848;37.636;2023-05-08T10:25:35;3.15;;;0.90;;
45366;SDS011;31100;55.848;37.636;2023-05-08T10:28:15;2.05;;;1.00;;
45366;SDS011;31100;55.848;37.636;2023-05-08T10:30:46;2.53;;;1.15;;
45366;SDS011;31100;55.848;37.636;2023-05-08T10:37:10;2.10;;;1.00;;
45366;SDS011;31100;55.848;37.636;2023-05-08T10:39:37;2.78;;;1.30;;
45366;SDS011;31100;55.848;37.636;2023-05-08T10:42:03;5.15;;;1.30;;
45366;SDS011;31100;55.848;37.636;2023-05-08T10:44:28;2.65;;;1.30;;
45366;SDS011;31100;55.848;37.636;2023-05-08T10:47:00;3.15;;;1.30;;
45366;SDS011;31100;55.848;37.636;2023-05-08T10:55:29;2.88;;;1.20;;
45366;SDS011;31100;55.848;37.636;2023-05-08T10:58:03;4.00;;;1.00;;
45366;SDS011;31100;55.848;37.636;2023-05-08T11:03:22;3.75;;;1.15;;
45366;SDS011;31100;55.848;37.636;2023-05-08T11:05:50;2.72;;;1.30;;
45366;SDS011;31100;55.848;37.636;2023-05-08T11:08:17;2.25;;;1.00;;
45366;SDS011;31100;55.848;37.636;2023-05-08T11:10:43;2.92;;;1.10;;
45366;SDS011;31100;55.848;37.636;2023-05-08T11:13:16;4.30;;;1.65;;
45366;SDS011;31100;55.848;37.636;2023-05-08T11:15:42;4.72;;;1.50;;
45366;SDS011;31100;55.848;37.636;2023-05-08T11:18:15;2.40;;;1.13;;
45366;SDS011;31100;55.848;37.636;2023-05-08T11:20:42;3.50;;;1.40;;
45366;SDS011;31100;55.848;37.636;2023-05-08T11:23:20;3.58;;;1.33;;
45366;SDS011;31100;55.848;37.636;2023-05-08T11:25:46;2.42;;;1.30;;
45366;SDS011;31100;55.848;37.636;2023-05-08T11:28:12;2.40;;;1.30;;
45366;SDS011;31100;55.848;37.636;2023-05-08T11:30:40;3.40;;;1.30;;
45366;SDS011;31100;55.848;37.636;2023-05-08T11:38:31;4.25;;;1.40;;
45366;SDS011;31100;55.848;37.636;2023-05-08T11:41:00;2.47;;;1.05;;
45366;SDS011;31100;55.848;37.636;2023-05-08T11:46:14;3.13;;;1.05;;
45366;SDS011;31100;55.848;37.636;2023-05-08T11:48:40;5.53;;;1.42;;
45366;SDS011;31100;55.848;37.636;2023-05-08T11:51:06;3.35;;;1.17;;
45366;SDS011;31100;55.848;37.636;2023-05-08T11:53:32;3.90;;;1.13;;
45366;SDS011;31100;55.848;37.636;2023-05-08T11:55:59;1.75;;;0.90;;
45366;SDS011;31100;55.848;37.636;2023-05-08T11:58:24;2.03;;;0.93;;
45366;SDS011;31100;55.848;37.636;2023-05-08T12:00:50;3.33;;;1.02;;
45366;SDS011;31100;55.848;37.636;2023-05-08T12:03:17;2.33;;;1.23;;
45366;SDS011;31100;55.848;37.636;2023-05-08T12:05:44;3.00;;;1.10;;
45366;SDS011;31100;55.848;37.636;2023-05-08T12:08:10;3.67;;;1.27;;
45366;SDS011;31100;55.848;37.636;2023-05-08T12:10:53;3.00;;;1.17;;
45366;SDS011;31100;55.848;37.636;2023-05-08T12:13:27;2.17;;;1.10;;
45366;SDS011;31100;55.848;37.636;2023-05-08T12:15:54;3.03;;;1.30;;
45366;SDS011;31100;55.848;37.636;2023-05-08T12:18:24;2.95;;;1.10;;
45366;SDS011;31100;55.848;37.636;2023-05-08T12:20:53;2.22;;;1.13;;
45366;SDS011;31100;55.848;37.636;2023-05-08T12:23:21;3.28;;;1.20;;
45366;SDS011;31100;55.848;37.636;2023-05-08T12:25:46;1.98;;;1.00;;
45366;SDS011;31100;55.848;37.636;2023-05-08T12:28:13;3.30;;;1.85;;
45366;SDS011;31100;55.848;37.636;2023-05-08T12:30:38;4.72;;;1.10;;
45366;SDS011;31100;55.848;37.636;2023-05-08T12:33:04;4.30;;;1.05;;
45366;SDS011;31100;55.848;37.636;2023-05-08T12:35:30;3.33;;;1.40;;
45366;SDS011;31100;55.848;37.636;2023-05-08T12:38:02;4.65;;;1.20;;
45366;SDS011;31100;55.848;37.636;2023-05-08T12:40:28;2.75;;;1.13;;
45366;SDS011;31100;55.848;37.636;2023-05-08T12:42:55;5.38;;;1.60;;
45366;SDS011;31100;55.848;37.636;2023-05-08T12:45:24;2.58;;;1.27;;
45366;SDS011;31100;55.848;37.636;2023-05-08T12:47:52;2.50;;;1.33;;
45366;SDS011;31100;55.848;37.636;2023-05-08T12:50:20;1.98;;;1.05;;
45366;SDS011;31100;55.848;37.636;2023-05-08T12:52:46;3.22;;;1.60;;
45366;SDS011;31100;55.848;37.636;2023-05-08T12:57:47;3.60;;;1.55;;
45366;SDS011;31100;55.848;37.636;2023-05-08T13:00:14;2.85;;;1.50;;
45366;SDS011;31100;55.848;37.636;2023-05-08T13:02:49;4.18;;;1.52;;
45366;SDS011;31100;55.848;37.636;2023-05-08T13:05:18;4.15;;;1.25;;
45366;SDS011;31100;55.848;37.636;2023-05-08T13:07:47;2.53;;;1.27;;
45366;SDS011;31100;55.848;37.636;2023-05-08T13:10:16;2.85;;;1.58;;
45366;SDS011;31100;55.848;37.636;2023-05-08T13:12:46;5.30;;;1.67;;
45366;SDS011;31100;55.848;37.636;2023-05-08T13:15:11;3.70;;;1.75;;
45366;SDS011;31100;55.848;37.636;2023-05-08T13:17:37;3.15;;;1.40;;
45366;SDS011;31100;55.848;37.636;2023-05-08T13:20:03;3.50;;;1.50;;
45366;SDS011;31100;55.848;37.636;2023-05-08T13:22:29;3.60;;;1.50;;
45366;SDS011;31100;55.848;37.636;2023-05-08T13:24:54;2.97;;;1.40;;
45366;SDS011;31100;55.848;37.636;2023-05-08T13:27:20;4.00;;;1.30;;
45366;SDS011;31100;55.848;37.636;2023-05-08T13:29:46;3.40;;;1.50;;
45366;SDS011;31100;55.848;37.636;2023-05-08T13:32:11;2.78;;;1.63;;
45366;SDS011;31100;55.848;37.636;2023-05-08T13:34:36;4.07;;;1.45;;
45366;SDS011;31100;55.848;37.636;2023-05-08T13:37:02;5.00;;;1.63;;
45366;SDS011;31100;55.848;37.636;2023-05-08T13:39:27;3.35;;;1.48;;
45366;SDS011;31100;55.848;37.636;2023-05-08T13:41:56;2.17;;;1.30;;
45366;SDS011;31100;55.848;37.636;2023-05-08T13:44:21;2.55;;;1.35;;
45366;SDS011;31100;55.848;37.636;2023-05-08T13:46:47;1.65;;;1.05;;
45366;SDS011;31100;55.848;37.636;2023-05-08T13:49:12;3.92;;;1.55;;
45366;SDS011;31100;55.848;37.636;2023-05-08T13:51:37;4.93;;;1.88;;
45366;SDS011;31100;55.848;37.636;2023-05-08T13:54:03;3.40;;;1.50;;
45366;SDS011;31100;55.848;37.636;2023-05-08T13:56:28;4.10;;;1.70;;
45366;SDS011;31100;55.848;37.636;2023-05-08T13:58:56;3.50;;;1.55;;
45366;SDS011;31100;55.848;37.636;2023-05-08T14:01:24;3.92;;;1.50;;
45366;SDS011;31100;55.848;37.636;2023-05-08T14:03:51;3.45;;;1.70;;
45366;SDS011;31100;55.848;37.636;2023-05-08T14:06:17;2.78;;;1.52;;
45366;SDS011;31100;55.848;37.636;2023-05-08T14:08:44;3.42;;;1.38;;
45366;SDS011;31100;55.848;37.636;2023-05-08T14:11:10;26.67;;;3.92;;
45366;SDS011;31100;55.848;37.636;2023-05-08T14:13:35;5.18;;;1.52;;
45366;SDS011;31100;55.848;37.636;2023-05-08T14:16:01;3.13;;;1.33;;
45366;SDS011;31100;55.848;37.636;2023-05-08T14:18:28;3.13;;;1.23;;
45366;SDS011;31100;55.848;37.636;2023-05-08T14:20:53;3.63;;;1.40;;
45366;SDS011;31100;55.848;37.636;2023-05-08T14:23:19;2.83;;;1.30;;
45366;SDS011;31100;55.848;37.636;2023-05-08T14:25:44;3.67;;;1.70;;
45366;SDS011;31100;55.848;37.636;2023-05-08T14:28:10;5.18;;;2.47;;
45366;SDS011;31100;55.848;37.636;2023-05-08T14:30:35;3.40;;;1.77;;
45366;SDS011;31100;55.848;37.636;2023-05-08T14:33:01;5.63;;;1.95;;
45366;SDS011;31100;55.848;37.636;2023-05-08T14:35:26;5.35;;;1.70;;
45366;SDS011;31100;55.848;37.636;2023-05-08T14:37:51;3.38;;;1.45;;
45366;SDS011;31100;55.848;37.636;2023-05-08T14:40:17;4.88;;;1.92;;
45366;SDS011;31100;55.848;37.636;2023-05-08T14:42:43;3.97;;;1.75;;
45366;SDS011;31100;55.848;37.636;2023-05-08T14:45:08;3.30;;;1.55;;
45366;SDS011;31100;55.848;37.636;2023-05-08T14:47:34;9.77;;;2.45;;
45366;SDS011;31100;55.848;37.636;2023-05-08T14:49:59;3.55;;;1.65;;
45366;SDS011;31100;55.848;37.636;2023-05-08T14:52:25;6.03;;;1.50;;
45366;SDS011;31100;55.848;37.636;2023-05-08T14:54:50;3.90;;;1.50;;
45366;SDS011;31100;55.848;37.636;2023-05-08T14:57:19;4.20;;;1.60;;
45366;SDS011;31100;55.848;37.636;2023-05-08T14:59:44;3.45;;;1.65;;
45366;SDS011;31100;55.848;37.636;2023-05-08T15:02:10;5.80;;;1.60;;
45366;SDS011;31100;55.848;37.636;2023-05-08T15:04:35;4.03;;;1.50;;
45366;SDS011;31100;55.848;37.636;2023-05-08T15:07:05;2.80;;;1.80;;
45366;SDS011;31100;55.848;37.636;2023-05-08T15:09:31;6.93;;;1.70;;
45366;SDS011;31100;55.848;37.636;2023-05-08T15:11:56;5.90;;;1.80;;
45366;SDS011;31100;55.848;37.636;2023-05-08T15:14:22;5.55;;;1.80;;
45366;SDS011;31100;55.848;37.636;2023-05-08T15:16:48;4.28;;;1.60;;
45366;SDS011;31100;55.848;37.636;2023-05-08T15:19:14;4.65;;;2.17;;
45366;SDS011;31100;55.848;37.636;2023-05-08T15:21:39;6.10;;;1.63;;
45366;SDS011;31100;55.848;37.636;2023-05-08T15:24:05;4.18;;;1.80;;
45366;SDS011;31100;55.848;37.636;2023-05-08T15:26:31;5.13;;;1.70;;
45366;SDS011;31100;55.848;37.636;2023-05-08T15:28:56;3.70;;;1.60;;
45366;SDS011;31100;55.848;37.636;2023-05-08T15:31:22;4.05;;;1.92;;
45366;SDS011;31100;55.848;37.636;2023-05-08T15:33:47;3.72;;;1.70;;